Time;durP1;ratioP1;P1;durP2;ratioP2;P2;SDS_P1;SDS_P2;PMS_P1;PMS_P2;Temp;Humidity;BMP_temperature;BMP_pressure;BME280_temperature;BME280_humidity;BME280_pressure;Samples;Min_cycle;Max_cycle;Signal;HPM_P1;HPM_P2
2021/11/15 08:42:05;;;;;;;31.60;21.77;;;14.80;99.90;;;;;;5085236;28;20370;-82
2021/11/15 08:44:33;;;;;;;32.03;19.85;;;14.90;99.90;;;;;;5083024;28;20028;-82
2021/11/15 08:47:00;;;;;;;28.40;19.10;;;15.10;99.90;;;;;;5082590;28;20120;-79
2021/11/15 08:49:28;;;;;;;29.20;19.38;;;15.30;99.90;;;;;;5084056;28;20074;-81
2021/11/15 08:51:55;;;;;;;27.02;16.70;;;15.50;99.90;;;;;;5084281;28;20056;-81
2021/11/15 08:54:22;;;;;;;28.92;19.45;;;15.40;99.90;;;;;;5082814;28;20032;-81
2021/11/15 08:56:50;;;;;;;31.23;20.23;;;15.10;99.90;;;;;;5084180;28;20028;-82
2021/11/15 08:59:17;;;;;;;30.20;20.65;;;14.70;99.90;;;;;;5080776;28;20064;-81
2021/11/15 09:01:43;;;;;;;29.38;20.17;;;14.30;99.90;;;;;;5083894;28;20044;-83
2021/11/15 09:04:09;;;;;;;33.00;21.90;;;14.10;99.90;;;;;;5083246;28;20024;-81
2021/11/15 09:06:36;;;;;;;33.25;22.48;;;13.90;99.90;;;;;;5082944;28;20036;-83
2021/11/15 09:09:04;;;;;;;41.05;22.25;;;13.60;99.90;;;;;;5083547;28;20024;-84
2021/11/15 09:11:30;;;;;;;45.75;23.95;;;13.40;99.90;;;;;;5082806;28;20024;-84
2021/11/15 09:13:56;;;;;;;42.65;24.35;;;13.40;99.90;;;;;;5083240;28;20058;-85
2021/11/15 09:16:21;;;;;;;38.72;22.52;;;13.30;99.90;;;;;;5084788;28;20037;-80
2021/11/15 09:18:47;;;;;;;;;;;13.20;99.90;;;;;;5083632;28;20025;-84
2021/11/15 09:21:15;;;;;;;33.33;21.73;;;13.00;99.90;;;;;;5084659;28;20019;-80
2021/11/15 09:23:44;;;;;;;36.83;23.83;;;13.00;99.90;;;;;;5082615;28;20027;-85
2021/11/15 09:26:11;;;;;;;40.20;24.27;;;12.90;99.90;;;;;;5083735;28;20028;-84
2021/11/15 09:28:38;;;;;;;35.53;22.45;;;12.80;99.90;;;;;;5083972;28;20024;-83
2021/11/15 09:31:06;;;;;;;38.92;24.05;;;12.70;99.90;;;;;;5083578;28;20040;-87
2021/11/15 09:33:32;;;;;;;37.72;23.65;;;12.50;99.90;;;;;;5083441;28;20044;-84
2021/11/15 09:35:59;;;;;;;36.28;22.92;;;12.40;99.90;;;;;;5082794;28;20023;-85
2021/11/15 09:38:25;;;;;;;35.55;23.95;;;12.40;99.90;;;;;;5080741;28;20051;-79
2021/11/15 09:40:56;;;;;;;36.65;24.73;;;12.30;99.90;;;;;;5077514;28;20040;-83
2021/11/15 09:43:35;;;;;;;40.15;25.63;;;12.20;99.90;;;;;;5074867;28;20036;-81
2021/11/15 09:46:06;;;;;;;36.40;23.60;;;12.20;99.90;;;;;;5076931;28;20086;-82
2021/11/15 09:48:39;;;;;;;38.05;22.67;;;12.10;99.90;;;;;;5079344;28;20071;-80
2021/11/15 09:51:07;;;;;;;39.45;25.42;;;12.10;99.90;;;;;;5075372;28;20036;-84
2021/11/15 09:53:33;;;;;;;36.58;23.95;;;12.00;99.90;;;;;;5067411;28;20032;-82
2021/11/15 09:55:59;;;;;;;;;;;11.90;99.90;;;;;;5064606;28;20049;-83
2021/11/15 09:58:26;;;;;;;41.13;24.93;;;11.80;99.90;;;;;;5059460;28;19920;-81
2021/11/15 10:00:52;;;;;;;38.88;21.83;;;11.80;99.90;;;;;;5064085;28;20321;-81
2021/11/15 10:03:19;;;;;;;35.10;22.00;;;11.80;99.90;;;;;;5064181;28;20522;-84
2021/11/15 10:05:45;;;;;;;35.60;22.73;;;11.90;99.90;;;;;;5062139;28;20037;-83
2021/11/15 10:08:12;;;;;;;39.00;25.58;;;11.90;99.90;;;;;;5064618;28;20045;-84
2021/11/15 10:10:55;;;;;;;32.97;21.85;;;11.80;99.90;;;;;;5060177;28;20095;-84
2021/11/15 10:13:31;;;;;;;38.72;25.23;;;11.80;99.90;;;;;;5066186;28;20152;-83
2021/11/15 10:16:00;;;;;;;36.40;23.33;;;11.70;99.90;;;;;;5062658;28;20044;-88
2021/11/15 10:18:28;;;;;;;39.53;24.48;;;11.70;99.90;;;;;;5064214;28;20059;-85
2021/11/15 10:20:54;;;;;;;40.97;26.08;;;11.80;99.90;;;;;;5058725;28;20039;-83
2021/11/15 10:23:28;;;;;;;;;;;11.90;99.90;;;;;;5063744;28;20033;-85
2021/11/15 10:25:58;;;;;;;39.55;23.60;;;11.80;99.90;;;;;;5061236;28;19920;-85
2021/11/15 10:28:26;;;;;;;39.63;23.08;;;11.70;99.90;;;;;;5066173;28;20493;-77
2021/11/15 10:30:52;;;;;;;45.50;25.65;;;11.70;99.90;;;;;;5058684;28;20094;-81
2021/11/15 10:33:18;;;;;;;;;;;11.80;99.90;;;;;;5064088;28;20041;-86
2021/11/15 10:35:47;;;;;;;42.33;26.30;;;11.80;99.90;;;;;;5062503;28;19923;-84
2021/11/15 10:38:14;;;;;;;42.28;25.88;;;11.80;99.90;;;;;;5065487;28;20039;-85
2021/11/15 10:40:40;;;;;;;44.30;26.67;;;11.80;99.90;;;;;;5061537;28;20057;-85
2021/11/15 10:43:09;;;;;;;;;;;11.80;99.90;;;;;;5062712;28;20036;-85
2021/11/15 10:45:38;;;;;;;43.20;24.73;;;11.70;99.90;;;;;;5063922;28;19926;-84
2021/11/15 10:48:10;;;;;;;43.05;26.85;;;11.70;99.90;;;;;;5064557;28;20480;-86
2021/11/15 10:50:46;;;;;;;45.08;28.45;;;11.70;99.90;;;;;;5055582;28;20043;-87
2021/11/15 10:53:20;;;;;;;41.72;28.42;;;11.80;99.90;;;;;;5059015;28;20540;-84
2021/11/15 10:56:07;;;;;;;39.45;27.38;;;11.80;99.90;;;;;;5058656;28;20128;-83
2021/11/15 10:58:42;;;;;;;47.03;29.95;;;11.80;99.90;;;;;;5063115;28;20598;-85
2021/11/15 11:01:08;;;;;;;41.45;26.77;;;11.80;99.90;;;;;;5058370;28;20124;-86
2021/11/15 11:03:35;;;;;;;45.30;28.50;;;11.80;99.90;;;;;;5059181;28;20029;-87
2021/11/15 11:06:08;;;;;;;43.55;27.65;;;11.80;99.90;;;;;;5063301;28;20047;-84
2021/11/15 11:08:41;;;;;;;43.33;26.55;;;11.80;99.90;;;;;;5056183;28;20456;-81
2021/11/15 11:11:11;;;;;;;46.00;28.33;;;11.80;99.90;;;;;;5055911;28;20047;-82
2021/11/15 11:13:54;;;;;;;44.22;28.20;;;11.80;99.90;;;;;;5061586;28;20047;-85
2021/11/15 11:16:34;;;;;;;49.90;29.77;;;11.90;99.90;;;;;;5064916;28;20035;-84
2021/11/15 11:19:14;;;;;;;50.03;30.42;;;11.90;99.90;;;;;;5061920;28;20207;-85
2021/11/15 11:21:56;;;;;;;44.75;27.23;;;11.80;99.90;;;;;;5061514;28;20051;-79
2021/11/15 11:24:36;;;;;;;48.22;27.77;;;11.80;99.90;;;;;;5060071;28;20042;-88
2021/11/15 11:27:14;;;;;;;45.15;29.65;;;11.80;99.90;;;;;;5055989;28;20515;-85
2021/11/15 11:29:46;;;;;;;43.72;27.88;;;11.80;99.90;;;;;;5058538;28;20385;-82
2021/11/15 11:32:16;;;;;;;49.10;28.52;;;11.70;99.90;;;;;;5051672;28;20040;-80
2021/11/15 11:34:43;;;;;;;45.67;28.58;;;11.80;99.90;;;;;;5052655;28;20040;-87
2021/11/15 11:37:13;;;;;;;46.53;27.95;;;11.80;99.90;;;;;;5056387;28;20046;-84
2021/11/15 11:39:40;;;;;;;48.05;28.73;;;11.80;99.90;;;;;;5056841;28;20484;-85
2021/11/15 11:42:07;;;;;;;47.63;27.52;;;11.80;99.90;;;;;;5066578;28;20051;-86
2021/11/15 11:44:34;;;;;;;45.28;29.17;;;11.80;99.90;;;;;;5067485;28;20514;-86
2021/11/15 11:47:03;;;;;;;46.78;29.08;;;11.80;99.90;;;;;;5067534;28;20035;-87
2021/11/15 11:49:31;;;;;;;47.03;29.08;;;11.80;99.90;;;;;;5067914;28;20052;-86
2021/11/15 11:52:01;;;;;;;46.33;28.27;;;11.80;99.90;;;;;;5067442;28;20602;-87
2021/11/15 11:54:36;;;;;;;50.00;29.30;;;11.80;99.90;;;;;;5068849;28;20021;-86
2021/11/15 11:57:08;;;;;;;43.50;28.15;;;11.80;99.90;;;;;;5067188;28;20115;-88
2021/11/15 11:59:40;;;;;;;51.72;27.58;;;11.80;99.90;;;;;;5069404;28;20108;-83
2021/11/15 12:02:09;;;;;;;45.15;27.02;;;11.80;99.90;;;;;;5067868;28;20071;-85
2021/11/15 12:04:50;;;;;;;40.20;23.80;;;11.80;99.90;;;;;;5069355;28;20111;-86
2021/11/15 12:07:48;;;;;;;44.40;24.15;;;11.80;99.90;;;;;;5067513;28;20067;-86
2021/11/15 12:10:33;;;;;;;41.47;25.67;;;11.70;99.90;;;;;;5069008;28;20066;-87
2021/11/15 12:13:03;;;;;;;44.75;27.08;;;11.70;99.90;;;;;;5067651;28;20672;-87
2021/11/15 12:15:42;;;;;;;44.80;23.73;;;11.70;99.90;;;;;;5067226;28;20021;-86
2021/11/15 12:18:10;;;;;;;37.47;23.63;;;11.70;99.90;;;;;;5067504;28;20020;-85
2021/11/15 12:21:02;;;;;;;43.05;24.85;;;11.70;99.90;;;;;;5068870;28;20036;-87
2021/11/15 12:23:35;;;;;;;43.60;25.92;;;11.70;99.90;;;;;;5063785;28;20611;-87
2021/11/15 12:26:08;;;;;;;43.17;26.02;;;11.70;99.90;;;;;;5067329;28;20028;-84
2021/11/15 12:28:46;;;;;;;42.40;25.05;;;11.70;99.90;;;;;;5067921;28;20054;-81
2021/11/15 12:31:14;;;;;;;39.30;24.17;;;11.60;99.90;;;;;;5067392;28;20110;-84
2021/11/15 12:33:42;;;;;;;40.03;23.52;;;11.50;99.90;;;;;;5069993;28;20021;-83
2021/11/15 12:36:13;;;;;;;38.65;22.20;;;11.50;99.90;;;;;;5067577;28;20032;-85
2021/11/15 12:38:59;;;;;;;38.15;22.30;;;11.50;99.90;;;;;;5067768;28;20027;-86
2021/11/15 12:41:27;;;;;;;41.53;24.15;;;11.60;99.90;;;;;;5066684;28;20465;-85
2021/11/15 12:43:59;;;;;;;42.83;25.52;;;11.60;99.90;;;;;;5068804;28;20009;-86
2021/11/15 12:46:44;;;;;;;40.78;25.75;;;11.70;99.90;;;;;;5068090;28;20552;-87
2021/11/15 12:49:29;;;;;;;45.50;26.25;;;11.70;99.90;;;;;;5068312;28;20036;-81
2021/11/15 12:54:37;;;;;;;40.38;23.17;;;11.80;99.90;;;;;;5069155;28;20032;-86
2021/11/15 12:57:04;;;;;;;38.50;23.95;;;11.70;99.90;;;;;;5068077;28;20021;-84
2021/11/15 12:59:32;;;;;;;38.92;25.75;;;11.70;99.90;;;;;;5067942;28;20123;-85
2021/11/15 13:01:58;;;;;;;42.42;26.23;;;11.80;99.90;;;;;;5066660;28;20124;-86
2021/11/15 13:04:23;;;;;;;;;;;11.80;99.90;;;;;;5067601;28;20116;-86
2021/11/15 13:06:49;;;;;;;42.60;23.60;;;11.80;99.90;;;;;;5067355;28;20004;-87
2021/11/15 13:09:16;;;;;;;;;;;11.80;99.90;;;;;;5068799;28;20431;-86
2021/11/15 13:11:43;;;;;;;41.92;24.45;;;11.80;99.90;;;;;;5066861;28;19912;-87
2021/11/15 13:14:10;;;;;;;38.75;24.15;;;11.70;99.90;;;;;;5067303;28;20032;-86
2021/11/15 13:16:35;;;;;;;47.30;25.52;;;11.70;99.90;;;;;;5067754;28;20043;-84
2021/11/15 13:19:01;;;;;;;;;;;11.70;99.90;;;;;;5067377;28;20016;-87
2021/11/15 13:21:26;;;;;;;41.28;23.60;;;11.70;99.90;;;;;;5067063;28;19916;-84
2021/11/15 13:23:53;;;;;;;;;;;11.70;99.90;;;;;;5068948;28;20027;-84
2021/11/15 13:26:20;;;;;;;37.47;23.50;;;11.70;99.90;;;;;;5067051;28;20348;-85
2021/11/15 13:28:46;;;;;;;42.50;24.58;;;11.70;99.90;;;;;;5070581;28;20025;-87
2021/11/15 13:31:12;;;;;;;;;;;11.70;99.90;;;;;;5072500;28;20078;-87
2021/11/15 13:33:38;;;;;;;37.57;21.53;;;11.70;99.90;;;;;;5070632;28;19911;-88
2021/11/15 13:36:04;;;;;;;;;;;11.70;99.90;;;;;;5071343;28;20271;-88
2021/11/15 13:38:30;;;;;;;43.92;25.23;;;11.60;99.90;;;;;;5069163;28;19961;-88
2021/11/15 13:40:56;;;;;;;;;;;11.60;99.90;;;;;;5070092;28;20048;-87
2021/11/15 13:43:25;;;;;;;36.20;22.13;;;11.60;99.90;;;;;;5070516;28;20288;-86
2021/11/15 13:45:55;;;;;;;35.08;21.08;;;11.60;99.90;;;;;;5071591;28;20021;-87
2021/11/15 13:48:25;;;;;;;36.42;20.58;;;11.50;99.90;;;;;;5071716;28;20028;-86
2021/11/15 13:50:51;;;;;;;36.83;24.42;;;11.40;99.90;;;;;;5070485;28;20021;-87
2021/11/15 13:53:17;;;;;;;37.53;24.05;;;11.50;99.90;;;;;;5070024;28;20037;-86
2021/11/15 13:55:44;;;;;;;;;;;11.40;99.90;;;;;;5071695;28;20030;-82
2021/11/15 13:58:11;;;;;;;36.35;22.23;;;11.30;99.90;;;;;;5070185;28;20013;-85
2021/11/15 14:00:38;;;;;;;37.13;23.67;;;11.30;99.90;;;;;;5070450;28;20045;-88
2021/11/15 14:03:04;;;;;;;38.97;22.73;;;11.20;99.90;;;;;;5070618;28;20075;-86
2021/11/15 14:05:32;;;;;;;;;;;11.20;99.90;;;;;;5073755;28;20032;-88
2021/11/15 14:07:57;;;;;;;41.42;23.65;;;11.20;99.90;;;;;;5071668;28;19908;-85
2021/11/15 14:10:23;;;;;;;;;;;11.10;99.90;;;;;;5071809;28;20555;-86
2021/11/15 14:12:49;;;;;;;40.65;24.67;;;11.10;99.90;;;;;;5071957;28;20380;-84
2021/11/15 14:15:14;;;;;;;;;;;11.00;99.90;;;;;;5073971;28;20070;-84
2021/11/15 14:17:42;;;;;;;43.47;26.77;;;11.00;99.90;;;;;;5084784;28;20339;-81
2021/11/15 14:20:08;;;;;;;41.22;24.77;;;11.00;99.90;;;;;;5095383;28;20031;-81
2021/11/15 14:22:34;;;;;;;47.25;27.40;;;10.90;99.90;;;;;;5095675;28;20055;-83
2021/11/15 14:25:00;;;;;;;;;;;10.90;99.90;;;;;;5098494;28;20099;-80
2021/11/15 14:27:25;;;;;;;48.35;28.25;;;10.80;99.90;;;;;;5098407;28;19916;-81
2021/11/15 14:29:51;;;;;;;;;;;10.70;99.90;;;;;;5099952;28;20008;-80
2021/11/15 14:32:17;;;;;;;58.67;35.90;;;10.70;99.90;;;;;;5099051;28;19892;-81
2021/11/15 14:34:46;;;;;;;;;;;10.60;99.90;;;;;;5099299;28;20096;-81
2021/11/15 14:37:16;;;;;;;53.03;34.20;;;10.50;99.90;;;;;;5099292;28;19892;-80
2021/11/15 14:39:42;;;;;;;47.67;30.17;;;10.50;99.90;;;;;;5098703;28;20022;-81
2021/11/15 14:42:08;;;;;;;;;;;10.40;99.90;;;;;;5098859;28;20044;-79
2021/11/15 14:44:34;;;;;;;43.97;25.67;;;10.30;99.90;;;;;;5098833;28;19892;-80
2021/11/15 14:47:00;;;;;;;53.38;27.90;;;10.30;99.90;;;;;;5098160;28;20028;-80
2021/11/15 14:49:25;;;;;;;;;;;10.20;99.90;;;;;;5098594;28;20063;-81
2021/11/15 14:51:52;;;;;;;44.00;25.98;;;10.10;99.90;;;;;;5098841;28;19920;-80
2021/11/15 14:54:18;;;;;;;49.58;25.85;;;9.90;99.90;;;;;;5098182;28;20016;-80
2021/11/15 14:56:44;;;;;;;;;;;9.90;99.90;;;;;;5099081;28;20027;-79
2021/11/15 14:59:10;;;;;;;45.30;26.10;;;9.70;99.90;;;;;;5097820;28;19915;-81
2021/11/15 15:01:49;;;;;;;;;;;9.60;99.90;;;;;;5098136;28;20067;-81
2021/11/15 15:04:18;;;;;;;72.85;49.92;;;9.50;99.90;;;;;;5097873;28;19916;-80
2021/11/15 15:06:45;;;;;;;59.13;32.50;;;9.40;99.90;;;;;;5098166;28;20009;-80
2021/11/15 15:09:11;;;;;;;50.65;31.15;;;9.20;99.90;;;;;;5098815;28;20036;-80
2021/11/15 15:11:38;;;;;;;;;;;9.10;99.90;;;;;;5098491;28;20007;-80
2021/11/15 15:14:11;;;;;;;54.38;30.15;;;9.00;99.90;;;;;;5098511;28;19896;-80
2021/11/15 15:16:38;;;;;;;54.30;30.77;;;8.90;99.90;;;;;;5098185;28;20028;-80
2021/11/15 15:19:12;;;;;;;62.13;31.48;;;8.90;99.90;;;;;;5098019;28;20088;-79
2021/11/15 15:21:39;;;;;;;66.68;30.98;;;8.80;99.90;;;;;;5098523;28;20088;-80
2021/11/15 15:24:05;;;;;;;58.78;32.58;;;8.80;99.90;;;;;;5098215;28;20036;-81
2021/11/15 15:26:31;;;;;;;;;;;8.80;99.90;;;;;;5097788;28;20046;-80
2021/11/15 15:28:57;;;;;;;55.50;29.83;;;8.80;99.90;;;;;;5097151;28;19915;-79
2021/11/15 15:31:23;;;;;;;;;;;8.70;99.90;;;;;;5097648;28;20013;-81
2021/11/15 15:33:49;;;;;;;54.20;29.15;;;8.70;99.90;;;;;;5096880;28;19892;-79
2021/11/15 15:36:16;;;;;;;50.75;30.95;;;8.50;99.90;;;;;;5096930;28;20016;-78
2021/11/15 15:38:44;;;;;;;56.25;32.90;;;8.40;99.90;;;;;;5096644;28;20052;-78
2021/11/15 15:41:11;;;;;;;55.22;30.83;;;8.30;99.90;;;;;;5096506;28;20031;-79
2021/11/15 15:43:37;;;;;;;49.45;30.30;;;8.40;99.90;;;;;;5097319;28;20062;-79
2021/11/15 15:46:03;;;;;;;54.17;32.60;;;8.20;99.90;;;;;;5096539;28;20031;-80
2021/11/15 15:48:31;;;;;;;;;;;8.20;99.90;;;;;;5097786;28;20014;-79
2021/11/15 15:50:57;;;;;;;53.22;29.67;;;8.10;99.90;;;;;;5097013;28;19908;-78
2021/11/15 15:53:27;;;;;;;;;;;8.00;99.90;;;;;;5096743;28;20051;-79
2021/11/15 15:55:55;;;;;;;50.63;29.02;;;7.90;99.90;;;;;;5095555;28;19904;-79
2021/11/15 15:58:26;;;;;;;56.92;29.30;;;7.80;99.90;;;;;;5096670;28;20020;-80
2021/11/15 16:00:53;;;;;;;56.15;34.38;;;7.70;99.90;;;;;;5095563;28;20044;-80
2021/11/15 16:03:23;;;;;;;67.78;41.90;;;7.60;99.90;;;;;;5095185;28;20012;-78
2021/11/15 16:05:57;;;;;;;71.40;42.53;;;7.40;99.90;;;;;;5094224;28;20052;-78
2021/11/15 16:16:51;;;;;;;135.75;74.97;;;7.10;99.90;;;;;;5095850;28;20063;-80
2021/11/15 16:19:17;;;;;;;139.35;72.80;;;7.00;99.90;;;;;;5094401;28;20039;-80
2021/11/15 16:21:43;;;;;;;;;;;6.90;99.90;;;;;;5096021;28;20047;-79
2021/11/15 16:24:09;;;;;;;159.95;81.07;;;6.80;99.90;;;;;;5095628;28;19916;-80
2021/11/15 16:26:36;;;;;;;;;;;6.80;99.90;;;;;;5095593;28;20015;-80
2021/11/15 16:29:02;;;;;;;138.85;68.30;;;6.70;99.90;;;;;;5094213;28;19943;-79
2021/11/15 16:31:32;;;;;;;112.85;59.17;;;6.60;99.90;;;;;;5094059;28;20092;-80
2021/11/15 16:34:02;;;;;;;125.35;60.72;;;6.60;99.90;;;;;;5094508;28;20028;-81
2021/11/15 16:36:29;;;;;;;84.47;42.75;;;6.50;99.90;;;;;;5093611;28;20111;-80
2021/11/15 16:38:55;;;;;;;86.07;46.35;;;6.40;99.90;;;;;;5093503;28;20034;-78
2021/11/15 16:41:25;;;;;;;238.63;111.55;;;6.40;99.90;;;;;;5093025;28;20108;-79
2021/11/15 16:43:51;;;;;;;171.63;85.10;;;6.30;99.90;;;;;;5093101;28;20021;-80
2021/11/15 16:46:17;;;;;;;;;;;6.30;99.90;;;;;;5093354;28;20079;-80
2021/11/15 16:48:43;;;;;;;102.97;50.35;;;6.30;99.90;;;;;;5093276;28;19892;-81
2021/11/15 16:51:09;;;;;;;80.10;40.13;;;6.30;99.90;;;;;;5091163;28;20032;-78
2021/11/15 16:53:35;;;;;;;;;;;6.20;99.90;;;;;;5094886;28;20019;-81
2021/11/15 16:56:03;;;;;;;65.93;34.90;;;6.30;99.90;;;;;;5093773;28;19943;-79
2021/11/15 16:58:30;;;;;;;60.45;31.10;;;6.30;99.90;;;;;;5093421;28;20044;-79
2021/11/15 17:00:57;;;;;;;54.08;31.83;;;6.20;99.90;;;;;;5093329;28;20041;-78
2021/11/15 17:03:26;;;;;;;54.15;30.63;;;6.30;99.90;;;;;;5095577;28;20024;-80
2021/11/15 17:05:55;;;;;;;55.63;30.85;;;6.40;99.90;;;;;;5097280;28;20004;-79
2021/11/15 17:08:28;;;;;;;57.42;31.50;;;6.50;99.90;;;;;;5097737;28;20032;-80
2021/11/15 17:11:02;;;;;;;53.50;30.52;;;6.60;99.90;;;;;;5098087;28;20024;-80
2021/11/15 17:13:28;;;;;;;57.40;32.67;;;6.70;99.90;;;;;;5097328;28;20034;-80
2021/11/15 17:15:55;;;;;;;52.13;31.25;;;6.70;99.90;;;;;;5097274;28;20038;-79
2021/11/15 17:18:23;;;;;;;55.05;34.00;;;6.80;99.90;;;;;;5098472;28;20035;-80
2021/11/15 17:20:54;;;;;;;55.30;29.92;;;6.90;99.90;;;;;;5097592;28;20096;-79
2021/11/15 17:23:20;;;;;;;52.15;30.38;;;6.90;99.90;;;;;;5097135;28;20024;-80
2021/11/15 17:25:46;;;;;;;;;;;6.90;99.90;;;;;;5097418;28;20074;-80
2021/11/15 17:28:13;;;;;;;54.63;29.52;;;7.00;99.90;;;;;;5097423;28;20367;-80
2021/11/15 17:30:39;;;;;;;53.60;32.60;;;7.00;99.90;;;;;;5096400;28;20021;-79
2021/11/15 17:33:05;;;;;;;53.58;30.15;;;7.10;99.90;;;;;;5097461;28;20025;-80
2021/11/15 17:35:31;;;;;;;;;;;7.10;99.90;;;;;;5097004;28;20034;-79
2021/11/15 17:37:57;;;;;;;51.53;29.90;;;7.00;99.90;;;;;;5095976;28;19904;-79
2021/11/15 17:40:25;;;;;;;;;;;7.10;99.90;;;;;;5094461;28;20513;-79
2021/11/15 17:42:51;;;;;;;55.13;31.92;;;7.00;99.90;;;;;;5094946;28;19919;-79
2021/11/15 17:45:17;;;;;;;;;;;7.10;99.90;;;;;;5093580;28;20044;-80
2021/11/15 17:47:44;;;;;;;48.90;26.38;;;7.20;99.90;;;;;;5094456;28;19912;-80
2021/11/15 17:50:16;;;;;;;45.67;27.25;;;7.20;99.90;;;;;;5095128;28;20084;-78
2021/11/15 17:52:50;;;;;;;54.47;30.88;;;7.20;99.90;;;;;;5094573;28;20061;-80
2021/11/15 17:55:39;;;;;;;59.22;31.88;;;7.10;99.90;;;;;;5094274;28;20028;-80
2021/11/15 17:58:12;;;;;;;57.53;30.85;;;7.10;99.90;;;;;;5094050;28;20088;-80
2021/11/15 18:00:38;;;;;;;56.78;31.20;;;7.00;99.90;;;;;;5091812;28;20060;-79
2021/11/15 18:03:07;;;;;;;;;;;6.90;99.90;;;;;;5092666;28;20024;-80
2021/11/15 18:05:33;;;;;;;52.90;29.35;;;6.90;99.90;;;;;;5091737;28;19904;-80
2021/11/15 18:08:00;;;;;;;;;;;6.90;99.90;;;;;;5093035;28;20610;-80
2021/11/15 18:10:26;;;;;;;55.05;30.90;;;6.90;99.90;;;;;;5090716;28;19908;-80
2021/11/15 18:12:51;;;;;;;;;;;6.80;99.90;;;;;;5090445;28;20105;-79
2021/11/15 18:15:23;;;;;;;52.53;28.52;;;6.80;99.90;;;;;;5091912;28;19962;-80
2021/11/15 18:17:53;;;;;;;49.10;27.17;;;6.90;99.90;;;;;;5090858;28;20024;-79
2021/11/15 18:20:20;;;;;;;55.10;29.90;;;6.80;99.90;;;;;;5091625;28;20031;-79
2021/11/15 18:22:46;;;;;;;62.60;36.03;;;6.80;99.90;;;;;;5091429;28;20024;-80
2021/11/15 18:25:12;;;;;;;;;;;6.80;99.90;;;;;;5089748;28;20066;-80
2021/11/15 18:27:39;;;;;;;61.80;36.28;;;6.70;99.90;;;;;;5088333;28;19904;-79
2021/11/15 18:30:07;;;;;;;60.17;36.67;;;6.60;99.90;;;;;;5088795;28;20032;-79
2021/11/15 18:32:34;;;;;;;66.35;37.83;;;6.50;99.90;;;;;;5088301;28;20036;-80
2021/11/15 18:35:02;;;;;;;58.50;35.33;;;6.30;99.90;;;;;;5089680;28;20013;-80
2021/11/15 18:37:28;;;;;;;65.07;37.92;;;6.10;99.90;;;;;;5088075;28;20029;-79
2021/11/15 18:39:54;;;;;;;75.07;43.97;;;6.00;99.90;;;;;;5089073;28;20048;-80
2021/11/15 18:42:21;;;;;;;;;;;5.90;99.90;;;;;;5089920;28;20036;-80
2021/11/15 18:44:55;;;;;;;119.05;64.72;;;5.70;99.90;;;;;;5090281;28;20061;-80
2021/11/15 18:47:23;;;;;;;165.02;89.93;;;5.50;99.90;;;;;;5093336;28;20028;-81
2021/11/15 18:49:51;;;;;;;126.18;69.47;;;5.40;99.90;;;;;;5098031;28;20020;-81
2021/11/15 18:52:18;;;;;;;92.35;53.53;;;5.30;99.90;;;;;;5093278;28;20044;-80
2021/11/15 18:54:45;;;;;;;85.82;48.58;;;5.20;99.90;;;;;;5088185;28;20020;-80
2021/11/15 18:57:11;;;;;;;74.10;42.38;;;5.10;99.90;;;;;;5088525;28;20038;-80
2021/11/15 18:59:37;;;;;;;;;;;5.00;99.90;;;;;;5087594;28;20025;-80
2021/11/15 19:02:03;;;;;;;72.70;40.42;;;4.90;99.90;;;;;;5086769;28;19950;-80
2021/11/15 19:04:33;;;;;;;77.70;44.33;;;4.90;99.90;;;;;;5087112;28;20024;-79
2021/11/15 19:07:01;;;;;;;74.57;43.90;;;4.80;99.90;;;;;;5087081;28;20029;-79
2021/11/15 19:09:32;;;;;;;75.40;43.20;;;4.80;99.90;;;;;;5086346;28;20056;-79
2021/11/15 19:12:04;;;;;;;81.82;46.10;;;4.80;99.90;;;;;;5087863;28;20086;-78
2021/11/15 19:14:30;;;;;;;84.50;48.67;;;4.80;99.90;;;;;;5087412;28;20035;-80
2021/11/15 19:16:56;;;;;;;;;;;4.80;99.90;;;;;;5088379;28;20217;-80
2021/11/15 19:19:22;;;;;;;88.03;51.22;;;4.80;99.90;;;;;;5088820;28;19904;-80
2021/11/15 19:21:49;;;;;;;71.10;43.40;;;4.90;99.90;;;;;;5087229;28;20051;-79
2021/11/15 19:24:15;;;;;;;80.05;47.95;;;4.90;99.90;;;;;;5086172;28;20017;-81
2021/11/15 19:26:42;;;;;;;;;;;4.90;99.90;;;;;;5087757;28;20138;-80
2021/11/15 19:29:11;;;;;;;71.47;43.05;;;5.00;99.90;;;;;;5088679;28;19926;-81
2021/11/15 19:31:40;;;;;;;67.88;41.60;;;4.90;99.90;;;;;;5088104;28;20028;-81
2021/11/15 19:34:09;;;;;;;67.05;40.38;;;4.90;99.90;;;;;;5088866;28;20055;-80
2021/11/15 19:36:37;;;;;;;73.03;45.92;;;4.90;99.90;;;;;;5087520;28;20025;-80
2021/11/15 19:39:12;;;;;;;97.25;60.78;;;4.90;99.90;;;;;;5087376;28;20032;-81
2021/11/15 19:41:40;;;;;;;92.68;60.75;;;4.90;99.90;;;;;;5088960;28;20048;-80
2021/11/15 19:44:10;;;;;;;75.70;49.15;;;4.80;99.90;;;;;;5088299;28;20024;-80
2021/11/15 19:46:36;;;;;;;72.22;45.05;;;4.80;99.90;;;;;;5087783;28;20032;-80
2021/11/15 19:49:02;;;;;;;73.38;44.22;;;4.70;99.90;;;;;;5087944;28;20025;-81
2021/11/15 19:51:30;;;;;;;77.25;44.72;;;4.60;99.90;;;;;;5086507;28;20054;-80
2021/11/15 19:53:56;;;;;;;77.05;47.22;;;4.70;99.90;;;;;;5087032;28;20032;-81
2021/11/15 19:56:22;;;;;;;;;;;4.70;99.90;;;;;;5087346;28;20092;-80
2021/11/15 19:58:50;;;;;;;83.20;45.03;;;4.70;99.90;;;;;;5087823;28;19908;-81
2021/11/15 20:01:16;;;;;;;82.22;46.83;;;4.70;99.90;;;;;;5087495;28;20068;-80
2021/11/15 20:03:42;;;;;;;86.70;48.58;;;4.70;99.90;;;;;;5087235;28;20024;-80
2021/11/15 20:06:08;;;;;;;;;;;4.70;99.90;;;;;;5088744;28;20023;-80
2021/11/15 20:08:34;;;;;;;98.97;52.05;;;4.70;99.90;;;;;;5089633;28;19999;-81
2021/11/15 20:11:00;;;;;;;;;;;4.70;99.90;;;;;;5088809;28;20021;-81
2021/11/15 20:13:27;;;;;;;93.07;54.78;;;4.60;99.90;;;;;;5087943;28;19975;-81
2021/11/15 20:15:54;;;;;;;96.20;56.03;;;4.60;99.90;;;;;;5088120;28;20088;-80
2021/11/15 20:18:21;;;;;;;104.20;59.88;;;4.60;99.90;;;;;;5087941;28;20032;-79
2021/11/15 20:20:47;;;;;;;122.03;66.72;;;4.70;99.90;;;;;;5088382;28;20059;-81
2021/11/15 20:23:13;;;;;;;158.35;75.65;;;4.60;99.90;;;;;;5087788;28;20037;-80
2021/11/15 20:25:40;;;;;;;;;;;4.60;99.90;;;;;;5089841;28;20036;-81
2021/11/15 20:28:09;;;;;;;123.60;61.13;;;4.60;99.90;;;;;;5088969;28;19911;-79
2021/11/15 20:30:36;;;;;;;104.28;56.72;;;4.70;99.90;;;;;;5088612;28;20500;-80
2021/11/15 20:33:04;;;;;;;109.20;52.30;;;4.60;99.90;;;;;;5088573;28;20029;-80
2021/11/15 20:35:31;;;;;;;107.45;52.22;;;4.60;99.90;;;;;;5089026;28;20096;-80
2021/11/15 20:37:59;;;;;;;88.22;44.22;;;4.70;99.90;;;;;;5089008;28;20025;-80
2021/11/15 20:40:26;;;;;;;81.45;41.65;;;4.60;99.90;;;;;;5088350;28;20064;-81
2021/11/15 20:42:56;;;;;;;69.05;36.90;;;4.60;99.90;;;;;;5089828;28;20025;-80
2021/11/15 20:45:23;;;;;;;73.60;38.20;;;4.60;99.90;;;;;;5088014;28;20088;-81
2021/11/15 20:47:51;;;;;;;74.50;41.22;;;4.60;99.90;;;;;;5089348;28;20082;-80
2021/11/15 20:50:20;;;;;;;77.43;41.35;;;4.50;99.90;;;;;;5088733;28;20029;-81
2021/11/15 20:52:46;;;;;;;65.05;36.92;;;4.50;99.90;;;;;;5088423;28;20035;-78
2021/11/15 20:55:14;;;;;;;;;;;4.60;99.90;;;;;;5088506;28;20027;-79
2021/11/15 20:57:40;;;;;;;54.70;31.42;;;4.50;99.90;;;;;;5088744;28;19900;-80
2021/11/15 21:00:14;;;;;;;52.92;30.13;;;4.50;99.90;;;;;;5089332;28;20064;-80
2021/11/15 21:02:41;;;;;;;60.05;32.90;;;4.50;99.90;;;;;;5089674;28;20032;-81
2021/11/15 21:05:08;;;;;;;59.63;35.08;;;4.50;99.90;;;;;;5089276;28;20025;-81
2021/11/15 21:07:34;;;;;;;63.65;37.63;;;4.50;99.90;;;;;;5090536;28;20046;-81
2021/11/15 21:10:00;;;;;;;62.22;38.03;;;4.50;99.90;;;;;;5091351;28;20054;-81
2021/11/15 21:12:27;;;;;;;;;;;4.40;99.90;;;;;;5092124;28;20024;-80
2021/11/15 21:14:53;;;;;;;81.72;46.42;;;4.40;99.90;;;;;;5091526;28;19919;-81
2021/11/15 21:17:18;;;;;;;;;;;4.40;99.90;;;;;;5092019;28;20048;-80
2021/11/15 21:19:45;;;;;;;60.30;34.55;;;4.40;99.90;;;;;;5092312;28;19909;-81
2021/11/15 21:22:11;;;;;;;52.05;31.40;;;4.40;99.90;;;;;;5092778;28;20019;-80
2021/11/15 21:24:41;;;;;;;;;;;4.40;99.90;;;;;;5093036;28;20025;-80
2021/11/15 21:27:08;;;;;;;52.35;29.83;;;4.50;99.90;;;;;;5094465;28;19919;-80
2021/11/15 21:29:35;;;;;;;47.08;25.15;;;4.40;99.90;;;;;;5097897;28;20025;-80
2021/11/15 21:32:02;;;;;;;37.35;21.73;;;4.50;99.90;;;;;;5092615;28;20028;-80
2021/11/15 21:34:28;;;;;;;42.85;24.38;;;4.70;99.90;;;;;;5088530;28;20048;-81
2021/11/15 21:36:54;;;;;;;;;;;4.80;99.90;;;;;;5089443;28;20021;-81
2021/11/15 21:39:20;;;;;;;25.27;16.65;;;5.00;99.90;;;;;;5086637;28;19912;-80
2021/11/15 21:41:46;;;;;;;;;;;5.40;99.90;;;;;;5089516;28;20056;-81
2021/11/15 21:44:13;;;;;;;26.42;16.83;;;5.80;99.90;;;;;;5073998;28;19931;-80
2021/11/15 21:47:04;;;;;;;25.65;14.50;;;5.90;99.90;;;;;;5083881;28;20045;-80